Time;durP1;ratioP1;P1;durP2;ratioP2;P2;SDS_P1;SDS_P2;PMS_P1;PMS_P2;Temp;Humidity;BMP_temperature;BMP_pressure;BME280_temperature;BME280_humidity;BME280_pressure;Samples;Min_cycle;Max_cycle;Signal;HPM_P1;HPM_P2
2023/11/02 00:01:53;;;;;;;0.40;0.23;;;17.30;99.90;;;17.47;55.50;99005.00;4899572;28;97538;-71
2023/11/02 00:04:22;;;;;;;1.73;0.30;;;17.40;99.90;;;17.46;54.70;99011.31;4919214;28;97430;-71
2023/11/02 00:06:49;;;;;;;0.33;0.20;;;17.40;99.90;;;17.43;58.86;98996.44;4907400;28;100379;-71
2023/11/02 00:09:24;;;;;;;1.60;0.30;;;17.40;99.90;;;17.51;58.39;98993.94;4906133;28;101294;-71
2023/11/02 00:11:55;;;;;;;0.33;0.10;;;17.40;99.90;;;17.53;58.91;98981.31;4892894;28;97164;-71
2023/11/02 00:14:23;;;;;;;0.77;0.37;;;17.50;99.90;;;17.57;57.71;98981.03;4904345;28;97017;-72
2023/11/02 00:16:51;;;;;;;1.37;0.50;;;17.50;99.90;;;17.55;56.80;98968.69;4900323;28;100292;-71
2023/11/02 00:19:37;;;;;;;1.17;0.50;;;17.50;99.90;;;17.58;54.90;98974.72;4908258;28;100051;-71
2023/11/02 00:22:10;;;;;;;0.90;0.50;;;17.50;99.90;;;17.42;57.85;98968.09;4898682;28;99062;-71
2023/11/02 00:24:47;;;;;;;2.20;0.30;;;17.30;99.90;;;17.34;54.12;98967.94;4907615;28;98051;-73
2023/11/02 00:27:13;;;;;;;1.23;0.43;;;17.20;99.90;;;17.24;55.21;98959.13;4908388;28;103548;-71
2023/11/02 00:29:39;;;;;;;0.60;0.40;;;17.10;99.90;;;17.30;57.81;98942.56;4903102;28;100078;-71
2023/11/02 00:32:08;;;;;;;0.50;0.30;;;17.10;99.90;;;17.26;55.51;98930.50;4900286;28;97435;-71
2023/11/02 00:34:34;;;;;;;0.80;0.40;;;17.10;99.90;;;17.31;58.89;98927.41;4904744;28;97551;-71
2023/11/02 00:37:00;;;;;;;0.40;0.27;;;17.20;99.90;;;17.33;58.63;98920.13;4899759;28;98603;-71
2023/11/02 00:39:27;;;;;;;0.20;0.20;;;17.20;99.90;;;17.32;59.45;98908.63;4900651;28;98251;-71
2023/11/02 00:41:53;;;;;;;2.13;0.50;;;17.20;99.90;;;17.40;58.57;98916.78;4903091;28;97486;-71
2023/11/02 00:44:19;;;;;;;0.53;0.33;;;17.40;99.90;;;17.46;59.23;98908.22;4911404;28;97225;-71
2023/11/02 00:46:45;;;;;;;0.40;0.20;;;17.40;99.90;;;17.44;58.75;98902.19;4893717;28;97788;-71
2023/11/02 00:49:20;;;;;;;0.63;0.20;;;17.40;99.90;;;17.47;58.71;98891.22;4912102;28;100242;-71
2023/11/02 00:51:57;;;;;;;0.57;0.30;;;17.40;99.90;;;17.46;57.12;98873.56;4907502;28;98291;-71
2023/11/02 00:55:01;;;;;;;0.30;0.30;;;17.40;99.90;;;17.46;53.63;98862.91;4901236;28;97063;-71
2023/11/02 00:57:37;;;;;;;0.10;0.10;;;17.40;99.90;;;17.44;56.55;98854.22;4896086;28;104451;-72
2023/11/02 01:00:05;;;;;;;0.57;0.20;;;17.40;99.90;;;17.46;58.73;98857.56;4900528;28;100993;-71
2023/11/02 01:02:37;;;;;;;0.27;0.20;;;17.40;99.90;;;17.51;58.73;98839.34;4902350;28;98450;-71
2023/11/02 01:05:04;;;;;;;0.70;0.27;;;17.50;99.90;;;17.53;56.58;98829.38;4896445;28;106707;-71
2023/11/02 01:07:33;;;;;;;0.60;0.30;;;17.50;99.90;;;17.47;54.24;98832.59;4900541;28;97291;-72
2023/11/02 01:10:04;;;;;;;0.30;0.30;;;17.50;99.90;;;17.45;58.98;98829.25;4892470;28;97520;-71
2023/11/02 01:12:36;;;;;;;1.03;0.20;;;17.40;99.90;;;17.33;53.68;98824.19;4894443;28;97633;-71
2023/11/02 01:15:10;;;;;;;0.70;0.50;;;17.30;99.90;;;17.41;55.97;98816.34;4894656;28;97156;-71
2023/11/02 01:17:43;;;;;;;1.10;0.30;;;17.30;99.90;;;17.46;58.45;98806.94;4902615;28;97128;-71
2023/11/02 01:20:33;;;;;;;0.43;0.10;;;17.40;99.90;;;17.51;59.04;98802.03;4903000;28;97928;-71
2023/11/02 01:23:14;;;;;;;0.10;0.10;;;17.50;99.90;;;17.58;56.61;98796.13;4898469;28;97459;-71
2023/11/02 01:25:50;;;;;;;2.37;0.30;;;17.60;99.90;;;17.59;57.15;98781.81;4897849;28;97054;-71
2023/11/02 01:28:19;;;;;;;0.10;0.10;;;17.60;99.90;;;17.63;58.65;98773.38;4901316;28;97699;-71
2023/11/02 01:31:16;;;;;;;0.67;0.30;;;17.60;99.90;;;17.65;55.35;98759.88;4908488;28;97524;-71
2023/11/02 01:33:59;;;;;;;0.30;0.20;;;17.70;99.90;;;17.74;58.13;98753.72;4911564;28;97430;-71
2023/11/02 01:36:29;;;;;;;0.30;0.20;;;17.80;99.90;;;17.75;57.61;98766.06;4917741;28;97164;-71
2023/11/02 01:39:06;;;;;;;0.10;0.10;;;17.90;99.90;;;17.77;58.09;98738.25;4918393;28;101317;-71
2023/11/02 01:42:03;;;;;;;0.50;0.17;;;17.90;99.90;;;17.83;57.70;98736.84;4931375;28;104330;-71
2023/11/02 01:45:05;;;;;;;0.60;0.20;;;18.00;99.90;;;17.83;56.28;98726.19;4907517;28;97272;-71
2023/11/02 01:47:54;;;;;;;0.40;0.20;;;18.00;99.90;;;17.91;57.61;98712.94;4913515;28;97486;-72
2023/11/02 01:50:41;;;;;;;1.70;0.30;;;18.00;99.90;;;17.88;57.50;98696.41;4919051;28;97982;-71
2023/11/02 01:53:16;;;;;;;0.30;0.30;;;18.00;99.90;;;17.88;55.00;98686.56;4936691;28;101776;-71
2023/11/02 01:56:33;;;;;;;0.30;0.20;;;18.00;99.90;;;17.90;57.54;98678.44;4919122;28;100458;-71
2023/11/02 01:59:20;;;;;;;0.40;0.40;;;18.00;99.90;;;17.84;53.96;98669.22;4935950;28;98039;-71
2023/11/02 02:02:03;;;;;;;0.73;0.20;;;18.00;99.90;;;17.84;57.34;98669.22;4912066;28;97869;-71
2023/11/02 02:04:41;;;;;;;0.47;0.30;;;18.00;99.90;;;17.89;57.55;98666.91;4918434;28;101163;-71
2023/11/02 02:07:48;;;;;;;2.60;0.60;;;18.00;99.90;;;17.90;54.02;98651.75;4910276;28;98361;-71
2023/11/02 02:10:25;;;;;;;0.37;0.30;;;18.00;99.90;;;17.91;57.33;98643.59;4914380;28;97106;-71
2023/11/02 02:13:16;;;;;;;1.53;0.43;;;18.00;99.90;;;17.92;57.10;98629.28;4922618;28;98079;-71
2023/11/02 02:16:10;;;;;;;0.53;0.30;;;18.10;99.90;;;17.88;57.01;98630.56;4922181;28;101059;-71
2023/11/02 02:18:52;;;;;;;0.97;0.23;;;18.00;99.90;;;17.87;52.79;98620.91;4911152;28;96932;-71
2023/11/02 02:21:30;;;;;;;1.13;0.57;;;18.00;99.90;;;17.83;56.87;98614.19;4902400;28;97923;-71
2023/11/02 02:24:11;;;;;;;0.47;0.30;;;17.80;99.90;;;17.80;57.60;98594.00;4903548;28;101581;-71
2023/11/02 02:27:12;;;;;;;0.93;0.20;;;17.80;99.90;;;17.86;57.37;98576.56;4912879;28;100102;-71
2023/11/02 02:30:02;;;;;;;0.87;0.23;;;17.90;99.90;;;17.88;57.30;98569.25;4918080;28;97362;-71
2023/11/02 02:32:55;;;;;;;1.37;0.23;;;18.00;99.90;;;17.91;57.60;98552.09;4919009;28;97296;-72
2023/11/02 02:35:37;;;;;;;0.40;0.27;;;18.00;99.90;;;17.90;55.17;98561.94;4934162;28;99257;-71
2023/11/02 02:38:11;;;;;;;0.60;0.20;;;18.00;99.90;;;17.83;56.90;98566.19;4932661;28;101514;-71
2023/11/02 02:41:00;;;;;;;0.30;0.30;;;17.90;99.90;;;17.66;56.70;98559.00;4914814;28;97334;-71
2023/11/02 02:43:27;;;;;;;0.70;0.33;;;17.60;99.90;;;17.53;52.85;98572.69;4916848;28;97637;-71
2023/11/02 02:45:56;;;;;;;0.40;0.30;;;17.50;99.90;;;17.48;57.70;98557.09;4916257;28;100350;-71
2023/11/02 02:48:23;;;;;;;2.40;0.40;;;17.40;99.90;;;17.54;55.75;98551.19;4921232;28;107232;-71
2023/11/02 02:50:57;;;;;;;0.37;0.37;;;17.50;99.90;;;17.53;57.69;98528.22;4919264;28;97218;-71
2023/11/02 02:53:29;;;;;;;0.50;0.30;;;17.50;99.90;;;17.59;58.36;98509.91;4919741;28;97223;-71
2023/11/02 02:56:01;;;;;;;0.77;0.30;;;17.60;99.90;;;17.65;57.70;98507.50;4914323;28;100552;-71
2023/11/02 02:58:28;;;;;;;0.87;0.33;;;17.70;99.90;;;17.73;55.92;98496.09;4906274;28;101799;-74
2023/11/02 03:00:54;;;;;;;1.37;0.50;;;17.80;99.90;;;17.75;57.76;98473.63;4926012;28;96979;-71
2023/11/02 03:03:23;;;;;;;0.70;0.30;;;17.90;99.90;;;17.75;57.89;98472.78;4926029;28;98280;-71
2023/11/02 03:05:52;;;;;;;0.50;0.30;;;17.90;99.90;;;17.79;57.43;98484.81;4939637;28;97552;-71
2023/11/02 03:08:20;;;;;;;0.27;0.10;;;18.00;99.90;;;17.81;57.19;98472.19;4913643;28;111543;-71
2023/11/02 03:10:47;;;;;;;0.80;0.43;;;18.00;99.90;;;17.78;57.54;98440.50;4925423;28;97745;-71
2023/11/02 03:13:16;;;;;;;0.80;0.60;;;18.00;99.90;;;17.80;57.31;98414.53;4919216;28;97247;-71
2023/11/02 03:15:44;;;;;;;0.60;0.30;;;18.00;99.90;;;17.85;56.89;98433.56;4907304;28;100076;-71
2023/11/02 03:18:12;;;;;;;2.53;0.50;;;18.00;99.90;;;17.83;57.19;98448.88;4919024;28;96918;-71
2023/11/02 03:20:40;;;;;;;0.20;0.20;;;18.00;99.90;;;17.86;57.03;98424.56;4911968;28;97232;-71
2023/11/02 03:23:15;;;;;;;1.20;0.77;;;18.00;99.90;;;17.86;56.57;98424.56;4923507;28;97389;-71
2023/11/02 03:26:11;;;;;;;0.37;0.37;;;18.00;99.90;;;17.89;55.04;98410.91;4909783;28;98053;-71
2023/11/02 03:29:10;;;;;;;1.03;0.50;;;18.10;99.90;;;17.89;56.83;98405.59;4916753;28;104266;-71
2023/11/02 03:31:52;;;;;;;1.50;0.40;;;18.00;99.90;;;17.82;56.94;98383.22;4922428;28;96955;-72
2023/11/02 03:34:55;;;;;;;0.50;0.30;;;18.00;99.90;;;17.84;56.96;98359.91;4915082;28;98213;-71
2023/11/02 03:37:35;;;;;;;0.40;0.40;;;18.00;99.90;;;17.84;57.04;98338.56;4927951;28;103091;-71
2023/11/02 03:41:05;;;;;;;0.63;0.60;;;18.00;99.90;;;17.85;57.10;98326.91;4904914;28;101303;-72
2023/11/02 03:44:15;;;;;;;0.37;0.30;;;18.00;99.90;;;17.88;55.13;98301.75;4890492;28;97805;-71
2023/11/02 03:47:33;;;;;;;0.33;0.30;;;18.10;99.90;;;17.87;56.75;98300.09;4860698;28;97171;-71
2023/11/02 03:50:49;;;;;;;0.40;0.30;;;18.10;99.90;;;17.91;56.83;98312.09;4917934;28;102976;-72
2023/11/02 03:54:15;;;;;;;0.87;0.30;;;18.10;99.90;;;17.88;56.05;98259.94;4909136;28;99723;-71
2023/11/02 03:57:12;;;;;;;0.53;0.43;;;18.00;99.90;;;17.77;56.63;98236.19;4935581;23;98213;-43
2023/11/02 04:00:05;;;;;;;0.60;0.40;;;18.00;99.90;;;17.72;56.43;98260.69;4942384;28;97053;-43
2023/11/02 04:02:34;;;;;;;0.90;0.40;;;17.90;99.90;;;17.76;56.36;98256.69;4945161;28;103620;-45
2023/11/02 04:05:21;;;;;;;0.47;0.33;;;17.90;99.90;;;17.76;56.89;98234.53;4942451;28;97270;-43
2023/11/02 04:08:13;;;;;;;0.50;0.37;;;17.90;99.90;;;17.78;56.00;98236.03;4955411;28;97492;-43
2023/11/02 04:11:10;;;;;;;0.80;0.30;;;18.00;99.90;;;17.74;55.63;98252.50;4965008;28;96917;-43
2023/11/02 04:13:56;;;;;;;0.47;0.37;;;17.90;99.90;;;17.68;54.36;98242.47;4959472;28;100347;-45
2023/11/02 04:16:23;;;;;;;0.67;0.60;;;17.90;99.90;;;17.66;56.86;98218.63;4962733;28;97418;-43
2023/11/02 04:18:48;;;;;;;1.23;0.43;;;17.80;99.90;;;17.67;53.29;98222.13;4958931;28;97010;-44
2023/11/02 04:21:14;;;;;;;0.67;0.50;;;17.80;99.90;;;17.67;56.81;98220.31;4965143;28;100473;-43
2023/11/02 04:23:40;;;;;;;0.90;0.20;;;17.70;99.90;;;17.62;54.27;98243.06;4975471;28;99258;-43
2023/11/02 04:26:06;;;;;;;3.40;0.40;;;17.80;99.90;;;17.65;55.22;98200.97;4965980;28;99349;-43
2023/11/02 04:28:33;;;;;;;0.33;0.30;;;17.80;99.90;;;17.67;57.29;98171.50;4958444;28;97528;-43
2023/11/02 04:30:59;;;;;;;0.60;0.30;;;17.80;99.90;;;17.65;56.59;98154.78;4966979;28;96827;-45
2023/11/02 04:33:25;;;;;;;0.33;0.30;;;17.80;99.90;;;17.64;57.60;98135.31;4962992;28;97558;-43
2023/11/02 04:35:51;;;;;;;0.67;0.40;;;17.80;99.90;;;17.68;57.45;98119.84;4958701;28;97084;-43
2023/11/02 04:38:17;;;;;;;0.47;0.27;;;17.80;99.90;;;17.64;57.28;98065.16;4980347;28;104503;-45
2023/11/02 04:40:43;;;;;;;0.50;0.30;;;17.90;99.90;;;17.63;57.69;98069.66;4957750;28;107471;-43
2023/11/02 04:43:09;;;;;;;1.00;0.37;;;17.90;99.90;;;17.60;56.90;98043.34;4965527;28;97672;-46
2023/11/02 04:45:36;;;;;;;0.80;0.40;;;17.90;99.90;;;17.66;56.39;98049.88;4958865;28;110254;-44
2023/11/02 04:48:03;;;;;;;0.77;0.30;;;17.90;99.90;;;17.69;57.07;98012.25;4961352;27;97116;-43
2023/11/02 04:50:29;;;;;;;1.23;0.37;;;17.90;99.90;;;17.63;53.35;97941.75;4970001;28;96951;-49
2023/11/02 04:52:54;;;;;;;1.43;0.40;;;17.90;99.90;;;17.54;57.02;97858.31;4960052;28;98097;-42
2023/11/02 04:55:20;;;;;;;0.77;0.27;;;17.80;99.90;;;17.47;57.00;97835.97;4950470;28;97138;-43
2023/11/02 04:57:46;;;;;;;0.87;0.20;;;17.80;99.90;;;17.43;56.24;97829.31;4963227;28;98690;-45
2023/11/02 05:00:13;;;;;;;1.53;0.37;;;17.80;99.90;;;17.47;57.04;97867.94;4960707;28;113696;-43
2023/11/02 05:02:39;;;;;;;2.30;0.37;;;17.80;99.90;;;17.54;55.30;97937.41;4963301;28;97115;-44
2023/11/02 05:05:06;;;;;;;0.90;0.30;;;17.70;99.90;;;17.57;56.15;97917.59;4956131;28;97035;-43
2023/11/02 05:07:31;;;;;;;0.80;0.20;;;17.70;99.90;;;17.55;56.24;97902.59;4956305;28;97254;-43
2023/11/02 05:09:57;;;;;;;0.90;0.47;;;17.80;99.90;;;17.49;56.91;97875.78;4959155;28;99181;-43
2023/11/02 05:12:23;;;;;;;0.50;0.33;;;17.80;99.90;;;17.56;53.25;97863.47;4957999;28;98866;-43
2023/11/02 05:14:49;;;;;;;1.50;0.30;;;17.80;99.90;;;17.55;56.73;97870.63;4964369;27;99033;-42
2023/11/02 05:17:15;;;;;;;0.37;0.33;;;17.70;99.90;;;17.52;51.36;97864.81;4962569;28;98884;-43
2023/11/02 05:19:40;;;;;;;0.80;0.30;;;17.70;99.90;;;17.50;56.75;97833.00;4958418;28;96916;-42
2023/11/02 05:22:08;;;;;;;0.50;0.40;;;17.70;99.90;;;17.51;56.55;97800.03;4958940;27;97342;-43
2023/11/02 05:24:34;;;;;;;1.13;0.40;;;17.70;99.90;;;17.59;55.53;97809.00;4967638;28;98280;-43
2023/11/02 05:27:00;;;;;;;0.40;0.30;;;17.80;99.90;;;17.55;56.32;97816.50;4962125;28;97326;-52
2023/11/02 05:29:25;;;;;;;0.40;0.30;;;17.80;99.90;;;17.53;56.23;97792.69;4959831;28;97384;-46
2023/11/02 05:31:51;;;;;;;0.47;0.20;;;17.80;99.90;;;17.59;54.65;97774.34;4964938;28;98323;-46
2023/11/02 05:34:17;;;;;;;0.80;0.40;;;17.80;99.90;;;17.59;56.04;97737.06;4945686;28;113085;-43
2023/11/02 05:36:43;;;;;;;0.23;0.23;;;17.80;99.90;;;17.52;55.83;97699.59;4957694;28;97123;-43
2023/11/02 05:39:09;;;;;;;0.70;0.27;;;17.80;99.90;;;17.58;56.19;97679.44;4955026;28;97207;-44
2023/11/02 05:41:35;;;;;;;1.93;0.40;;;17.80;99.90;;;17.55;56.97;97737.41;4959195;28;99331;-45
2023/11/02 05:44:00;;;;;;;0.23;0.23;;;17.80;99.90;;;17.61;55.50;97783.84;4955911;28;107135;-43
2023/11/02 05:46:26;;;;;;;0.50;0.30;;;17.80;99.90;;;17.66;52.32;97781.53;4967549;28;97475;-44
2023/11/02 05:48:52;;;;;;;0.30;0.27;;;17.80;99.90;;;17.59;55.54;97748.53;4963231;28;96933;-43
2023/11/02 05:51:18;;;;;;;0.53;0.20;;;17.70;99.90;;;17.66;55.51;97764.69;4964578;28;97145;-43
2023/11/02 05:53:44;;;;;;;1.60;0.33;;;17.70;99.90;;;17.50;51.24;97786.84;4950862;28;108623;-47
2023/11/02 05:56:10;;;;;;;0.20;0.20;;;17.70;99.90;;;17.41;52.76;97738.06;4959474;28;96686;-43
2023/11/02 05:58:35;;;;;;;2.10;0.40;;;17.40;99.90;;;17.42;56.43;97710.44;4959649;28;96923;-43
2023/11/02 06:01:01;;;;;;;0.43;0.10;;;17.50;99.90;;;17.43;56.36;97728.09;4962340;27;98660;-43
2023/11/02 06:03:29;;;;;;;2.40;0.43;;;17.60;99.90;;;17.46;53.50;97738.41;4965570;28;97202;-44
2023/11/02 06:05:54;;;;;;;3.27;0.27;;;17.60;99.90;;;17.34;53.87;97733.56;4958308;28;97297;-42
2023/11/02 06:08:20;;;;;;;0.30;0.20;;;17.40;99.90;;;17.31;51.88;97793.34;4963777;28;97314;-44
2023/11/02 06:10:46;;;;;;;1.10;0.60;;;17.40;99.90;;;17.38;56.38;97799.69;4962072;28;108665;-43
2023/11/02 06:13:12;;;;;;;0.50;0.20;;;17.40;99.90;;;17.30;54.65;97826.31;4960868;28;100621;-43
2023/11/02 06:15:38;;;;;;;0.77;0.20;;;17.40;99.90;;;17.30;51.74;97828.97;4961009;27;97353;-43
2023/11/02 06:18:05;;;;;;;0.30;0.20;;;17.40;99.90;;;17.19;52.30;97843.44;4949744;28;97158;-43
2023/11/02 06:20:32;;;;;;;0.40;0.20;;;17.30;99.90;;;17.20;56.74;97821.13;4959368;27;97326;-43
2023/11/02 06:22:58;;;;;;;0.93;0.27;;;17.20;99.90;;;17.24;56.17;97809.19;4958841;28;97097;-43
2023/11/02 06:25:24;;;;;;;0.50;0.27;;;17.30;99.90;;;17.30;56.19;97813.00;4964867;28;96941;-43
2023/11/02 06:27:50;;;;;;;1.07;0.40;;;17.30;99.90;;;17.29;52.63;97816.66;4966605;27;97127;-43
2023/11/02 06:30:16;;;;;;;2.90;0.20;;;17.30;99.90;;;17.13;51.37;97785.53;4961303;28;107220;-43
2023/11/02 06:32:42;;;;;;;0.93;0.30;;;17.20;99.90;;;17.17;56.52;97788.69;4960877;28;96953;-43
2023/11/02 06:35:08;;;;;;;0.43;0.20;;;17.20;99.90;;;17.21;56.67;97776.69;4957021;28;99441;-43
2023/11/02 06:37:58;;;;;;;0.37;0.37;;;17.20;99.90;;;17.07;55.72;97795.97;4962187;28;102365;-43
2023/11/02 06:40:25;;;;;;;0.37;0.30;;;17.10;99.90;;;17.09;57.70;97799.34;4976320;27;105595;-43
2023/11/02 06:42:52;;;;;;;0.30;0.20;;;17.10;99.90;;;17.12;58.43;97804.31;4961747;28;97081;-43
2023/11/02 06:45:18;;;;;;;0.70;0.50;;;17.10;99.90;;;17.04;58.16;97788.34;4964873;28;97715;-42
2023/11/02 06:47:45;;;;;;;0.10;0.10;;;17.10;99.90;;;16.99;58.41;97777.34;4965101;28;97589;-44
2023/11/02 06:50:11;;;;;;;0.83;0.43;;;17.00;99.90;;;17.07;58.37;97806.63;4958751;28;97414;-45
2023/11/02 06:52:37;;;;;;;0.43;0.13;;;17.10;99.90;;;17.12;56.75;97812.31;4962982;28;97132;-43
2023/11/02 06:55:04;;;;;;;0.63;0.10;;;17.20;99.90;;;17.15;54.48;97825.28;4956769;28;97356;-43
2023/11/02 06:57:30;;;;;;;1.10;0.23;;;17.20;99.90;;;17.17;56.18;97809.97;4957123;28;97778;-46
2023/11/02 06:59:56;;;;;;;0.47;0.27;;;17.30;99.90;;;17.23;57.48;97822.66;4952049;28;97613;-44
2023/11/02 07:02:24;;;;;;;1.67;0.20;;;17.30;99.90;;;17.21;55.04;97819.31;4947169;28;97510;-44
2023/11/02 07:04:57;;;;;;;1.17;0.20;;;17.30;99.90;;;17.24;55.66;97819.00;4964414;28;97153;-45
2023/11/02 07:07:23;;;;;;;0.43;0.20;;;17.40;99.90;;;17.23;53.76;97806.69;4958528;28;97139;-45
2023/11/02 07:09:53;;;;;;;0.20;0.10;;;17.30;99.90;;;17.17;54.29;97770.88;4940771;28;97566;-44
2023/11/02 07:12:19;;;;;;;0.20;0.20;;;17.20;99.90;;;17.23;55.48;97790.69;4949904;28;98908;-42
2023/11/02 07:14:46;;;;;;;0.60;0.20;;;17.20;99.90;;;17.24;57.44;97803.00;4966653;28;100548;-44
2023/11/02 07:17:13;;;;;;;1.90;0.30;;;17.20;99.90;;;17.22;56.24;97799.69;4966655;28;97404;-46
2023/11/02 07:19:39;;;;;;;0.37;0.17;;;17.30;99.90;;;17.19;57.69;97805.31;4963921;27;98914;-43
2023/11/02 07:22:05;;;;;;;0.30;0.20;;;17.20;99.90;;;17.24;57.58;97789.69;4968079;27;96702;-43
2023/11/02 07:24:31;;;;;;;0.60;0.40;;;17.20;99.90;;;17.23;56.84;97788.03;4966532;28;96966;-43
2023/11/02 07:26:57;;;;;;;0.83;0.20;;;17.20;99.90;;;17.22;57.12;97778.38;4971668;28;97643;-43
2023/11/02 07:29:23;;;;;;;0.37;0.27;;;17.20;99.90;;;17.25;57.63;97772.72;4962978;28;97494;-43
2023/11/02 07:31:49;;;;;;;0.33;0.10;;;17.20;99.90;;;17.27;57.66;97776.03;4962382;27;101101;-43
2023/11/02 07:34:14;;;;;;;0.23;0.23;;;17.30;99.90;;;17.29;57.33;97766.06;4952467;28;97437;-45
2023/11/02 07:36:40;;;;;;;1.90;0.27;;;17.30;99.90;;;17.33;58.83;97748.72;4959033;28;97650;-45
2023/11/02 07:39:06;;;;;;;0.23;0.23;;;17.40;99.90;;;17.39;57.96;97741.91;4963394;28;97076;-44
2023/11/02 07:41:32;;;;;;;1.07;0.20;;;17.50;99.90;;;17.41;58.39;97761.22;4970344;28;96959;-43
2023/11/02 07:43:58;;;;;;;1.03;0.40;;;17.50;99.90;;;17.45;58.44;97744.72;4959955;27;97108;-45
2023/11/02 07:46:24;;;;;;;0.27;0.20;;;17.60;99.90;;;17.47;58.22;97726.72;4958054;27;108074;-44
2023/11/02 07:48:51;;;;;;;0.40;0.20;;;17.60;99.90;;;17.43;57.81;97716.59;4962153;27;97103;-44
2023/11/02 07:51:17;;;;;;;0.10;0.10;;;17.70;99.90;;;17.51;57.76;97727.25;4965409;28;97268;-43
2023/11/02 07:53:43;;;;;;;0.60;0.30;;;17.70;99.90;;;17.53;58.26;97717.25;4961675;27;101624;-45
2023/11/02 07:56:09;;;;;;;0.13;0.10;;;17.80;99.90;;;17.51;58.24;97714.75;4965444;28;97054;-43
2023/11/02 07:58:36;;;;;;;0.40;0.20;;;17.80;99.90;;;17.47;58.23;97692.09;4960623;27;97510;-43
2023/11/02 08:01:03;;;;;;;1.40;0.27;;;17.80;99.90;;;17.59;56.93;97702.41;4955001;28;97610;-43
2023/11/02 08:03:28;;;;;;;0.63;0.10;;;17.80;99.90;;;17.53;57.85;97691.44;4963250;27;97201;-43
2023/11/02 08:05:54;;;;;;;0.10;0.10;;;17.80;99.90;;;17.62;57.50;97676.25;4959885;28;109597;-45
2023/11/02 08:08:20;;;;;;;0.87;0.30;;;17.90;99.90;;;17.65;57.11;97683.91;4965412;28;97977;-43
2023/11/02 08:10:46;;;;;;;0.20;0.20;;;17.90;99.90;;;17.65;55.90;97665.25;4963431;27;97190;-43
2023/11/02 08:13:12;;;;;;;0.10;0.10;;;17.90;99.90;;;17.65;57.09;97677.72;4956702;28;104982;-43
2023/11/02 08:15:38;;;;;;;0.20;0.10;;;17.90;99.90;;;17.64;57.81;97654.75;4962501;28;96939;-43
2023/11/02 08:18:04;;;;;;;0.40;0.20;;;17.90;99.90;;;17.70;57.12;97660.28;4958923;28;98882;-43
2023/11/02 08:21:01;;;;;;;0.20;0.10;;;17.90;99.90;;;17.68;55.35;97658.75;4957394;28;108138;-46
2023/11/02 08:23:30;;;;;;;0.70;0.33;;;17.90;99.90;;;17.58;57.44;97660.78;4868982;28;97969;-45
2023/11/02 08:25:56;;;;;;;0.73;0.43;;;17.80;99.90;;;17.64;57.03;97642.25;4969634;28;97224;-43
2023/11/02 08:28:21;;;;;;;0.30;0.20;;;17.80;99.90;;;17.67;57.71;97646.44;4969735;27;98526;-43
2023/11/02 08:42:15;;;;;;;0.20;0.20;;;17.80;99.90;;;17.65;57.55;97627.09;5226064;22;99125;-72
2023/11/02 08:44:41;;;;;;;0.10;0.10;;;17.80;99.90;;;17.61;57.31;97607.13;4945962;28;97143;-71
2023/11/02 08:47:07;;;;;;;3.93;0.23;;;17.80;99.90;;;17.54;58.13;97605.16;4945643;28;97292;-71
2023/11/02 08:49:36;;;;;;;0.10;0.10;;;17.80;99.90;;;17.60;55.73;97614.28;4947539;28;96932;-72
2023/11/02 08:52:02;;;;;;;0.03;0.03;;;17.80;99.90;;;17.60;57.39;97603.63;4946105;27;97287;-72
2023/11/02 08:54:28;;;;;;;0.77;0.37;;;17.80;99.90;;;17.63;57.57;97607.78;4946029;28;97645;-71
2023/11/02 08:56:54;;;;;;;0.60;0.13;;;17.80;99.90;;;17.62;57.84;97598.13;4946772;28;112074;-71
2023/11/02 08:59:21;;;;;;;0.13;0.10;;;17.80;99.90;;;17.62;57.58;97577.66;4942588;28;100870;-71
2023/11/02 09:01:48;;;;;;;0.10;0.10;;;17.80;99.90;;;17.55;57.84;97577.53;4944393;27;96948;-71
2023/11/02 09:04:14;;;;;;;0.57;0.10;;;17.80;99.90;;;17.61;57.30;97569.81;4942256;28;99988;-71
2023/11/02 09:06:40;;;;;;;3.03;0.53;;;17.80;99.90;;;17.65;57.02;97581.78;4941654;28;97593;-71
2023/11/02 09:09:06;;;;;;;0.20;0.13;;;17.90;99.90;;;17.65;57.22;97587.97;4949048;28;97366;-72
2023/11/02 09:11:32;;;;;;;0.30;0.23;;;17.80;99.90;;;17.62;56.73;97574.16;4945919;28;97829;-72
2023/11/02 09:13:58;;;;;;;2.50;0.40;;;17.90;99.90;;;17.62;57.66;97574.16;4946718;28;97307;-72
2023/11/02 09:16:26;;;;;;;1.30;0.13;;;17.90;99.90;;;17.63;57.23;97575.81;4942763;28;97558;-71
2023/11/02 09:18:52;;;;;;;0.27;0.20;;;17.80;99.90;;;17.63;57.22;97573.13;4947444;28;97640;-71
2023/11/02 09:21:17;;;;;;;1.97;0.37;;;17.80;99.90;;;17.70;57.71;97571.50;4946839;28;96704;-72
2023/11/02 09:26:19;;;;;;;0.40;0.20;;;17.90;99.90;;;17.73;57.73;97589.78;4512158;26;98359;-72
2023/11/02 09:28:45;;;;;;;0.10;0.10;;;18.00;99.90;;;17.75;56.90;97585.13;4923970;28;98429;-73
2023/11/02 09:31:12;;;;;;;0.60;0.10;;;18.00;99.90;;;17.74;57.62;97580.78;4928518;28;120545;-73
2023/11/02 09:33:39;;;;;;;0.40;0.20;;;18.00;99.90;;;17.64;57.83;97569.47;4954387;28;97308;-72
2023/11/02 09:36:06;;;;;;;0.50;0.20;;;17.90;99.90;;;17.71;57.52;97571.31;4934296;28;96932;-72
2023/11/02 09:38:32;;;;;;;1.50;0.20;;;18.00;99.90;;;17.77;56.43;97549.28;4928698;28;98863;-72
2023/11/02 09:40:58;;;;;;;0.50;0.20;;;18.00;99.90;;;17.68;57.79;97549.50;4933684;27;127526;-72
2023/11/02 09:43:26;;;;;;;0.83;0.60;;;18.00;99.90;;;17.67;57.93;97532.66;4931458;28;103840;-73
2023/11/02 09:45:52;;;;;;;0.80;0.20;;;18.00;99.90;;;17.66;57.44;97535.50;4930539;28;97212;-72
2023/11/02 09:48:18;;;;;;;0.37;0.10;;;18.00;99.90;;;17.70;57.63;97537.69;4927821;28;96937;-72
2023/11/02 09:50:45;;;;;;;0.70;0.20;;;18.00;99.90;;;17.70;57.62;97537.69;4924234;28;97706;-73
2023/11/02 09:53:11;;;;;;;2.93;0.20;;;18.00;99.90;;;17.73;57.23;97549.81;4925977;28;96700;-75
2023/11/02 09:55:39;;;;;;;1.53;0.20;;;18.00;99.90;;;17.82;57.28;97552.28;5068773;22;98569;-72
2023/11/02 09:58:06;;;;;;;0.17;0.10;;;18.00;99.90;;;17.84;57.12;97560.91;4954288;28;99404;-73
2023/11/02 10:00:33;;;;;;;0.40;0.20;;;18.00;99.90;;;17.82;57.20;97556.78;4941753;28;99005;-73
2023/11/02 10:02:59;;;;;;;1.00;0.47;;;18.00;99.90;;;17.84;56.33;97538.75;4947876;28;97223;-73
2023/11/02 10:05:24;;;;;;;0.23;0.13;;;18.00;99.90;;;17.88;56.90;97544.56;4937469;28;97349;-72
2023/11/02 10:07:51;;;;;;;0.60;0.30;;;18.00;99.90;;;17.81;56.76;97550.63;4934354;28;116596;-73
2023/11/02 10:10:18;;;;;;;1.10;0.50;;;17.90;99.90;;;17.77;57.03;97543.13;4933259;28;97591;-72
2023/11/02 10:12:44;;;;;;;0.37;0.10;;;17.80;99.90;;;17.77;57.27;97545.78;4929452;28;97056;-73
2023/11/02 10:15:11;;;;;;;0.80;0.20;;;17.90;99.90;;;17.78;57.07;97555.44;4940724;28;97392;-73
2023/11/02 10:17:38;;;;;;;1.00;0.43;;;17.90;99.90;;;17.77;56.79;97553.78;4931764;28;98366;-72
2023/11/02 10:20:15;;;;;;;0.57;0.20;;;17.80;99.90;;;17.71;57.54;97560.66;4935617;27;98422;-73
2023/11/02 10:22:44;;;;;;;1.33;0.20;;;17.70;99.90;;;17.64;56.09;97548.97;4936986;27;96934;-73
2023/11/02 10:25:14;;;;;;;0.70;0.30;;;17.70;99.90;;;17.57;57.56;97539.22;4943226;27;96903;-73
2023/11/02 10:27:44;;;;;;;3.30;0.57;;;17.60;99.90;;;17.44;55.94;97559.25;4924243;28;98208;-72
2023/11/02 10:30:11;;;;;;;1.17;0.30;;;17.50;99.90;;;17.45;57.92;97544.91;4929943;28;97500;-72
2023/11/02 10:32:38;;;;;;;2.13;0.63;;;17.40;99.90;;;17.41;54.80;97543.59;4941945;28;97058;-74
2023/11/02 10:35:06;;;;;;;0.63;0.30;;;17.40;99.90;;;17.35;55.35;97530.13;4942529;28;97206;-74
2023/11/02 10:37:34;;;;;;;2.20;0.60;;;17.40;99.90;;;17.36;57.10;97532.66;4943051;28;98885;-73
2023/11/02 10:40:01;;;;;;;1.60;0.37;;;17.30;99.90;;;17.31;55.97;97548.28;4938196;28;101102;-73
2023/11/02 10:42:29;;;;;;;0.50;0.30;;;17.30;99.90;;;17.29;57.05;97534.31;4937165;28;97919;-72
2023/11/02 10:44:56;;;;;;;2.53;0.43;;;17.30;99.90;;;17.29;53.74;97550.31;4939020;27;97611;-73
2023/11/02 10:47:29;;;;;;;0.77;0.40;;;17.30;99.90;;;17.24;53.76;97520.72;4934671;27;98126;-73
2023/11/02 10:49:58;;;;;;;0.93;0.50;;;17.30;99.90;;;17.19;53.75;97531.03;4938640;28;99617;-72
2023/11/02 10:52:48;;;;;;;3.57;0.40;;;17.20;99.90;;;17.22;53.59;97506.75;4923507;28;97219;-72